sensor_id;sensor_type;location;lat;lon;timestamp;temperature;humidity
12726;DHT22;6427;49.754;6.106;2022-08-19T00:01:23;19.60;97.10
12726;DHT22;6427;49.754;6.106;2022-08-19T00:03:50;19.60;97.20
12726;DHT22;6427;49.754;6.106;2022-08-19T00:06:18;19.70;97.20
12726;DHT22;6427;49.754;6.106;2022-08-19T00:08:45;19.60;96.60
12726;DHT22;6427;49.754;6.106;2022-08-19T00:11:13;19.70;96.80
12726;DHT22;6427;49.754;6.106;2022-08-19T00:13:41;19.40;97.00
12726;DHT22;6427;49.754;6.106;2022-08-19T00:16:09;19.30;96.90
12726;DHT22;6427;49.754;6.106;2022-08-19T00:18:37;19.20;97.40
12726;DHT22;6427;49.754;6.106;2022-08-19T00:21:05;19.00;97.60
12726;DHT22;6427;49.754;6.106;2022-08-19T00:23:33;18.90;98.00
12726;DHT22;6427;49.754;6.106;2022-08-19T00:26:00;18.90;98.60
12726;DHT22;6427;49.754;6.106;2022-08-19T00:28:28;18.80;99.00
12726;DHT22;6427;49.754;6.106;2022-08-19T00:30:55;18.70;99.20
12726;DHT22;6427;49.754;6.106;2022-08-19T00:33:23;18.60;99.90
12726;DHT22;6427;49.754;6.106;2022-08-19T00:35:50;18.80;99.90
12726;DHT22;6427;49.754;6.106;2022-08-19T00:38:18;18.80;99.60
12726;DHT22;6427;49.754;6.106;2022-08-19T00:40:46;18.70;99.70
12726;DHT22;6427;49.754;6.106;2022-08-19T00:43:14;18.60;99.90
12726;DHT22;6427;49.754;6.106;2022-08-19T00:45:41;18.60;99.90
12726;DHT22;6427;49.754;6.106;2022-08-19T00:48:10;18.40;99.90
12726;DHT22;6427;49.754;6.106;2022-08-19T00:50:38;18.40;99.90
12726;DHT22;6427;49.754;6.106;2022-08-19T00:53:04;18.40;99.90
12726;DHT22;6427;49.754;6.106;2022-08-19T00:55:32;18.30;99.90
12726;DHT22;6427;49.754;6.106;2022-08-19T00:58:01;18.30;99.90
12726;DHT22;6427;49.754;6.106;2022-08-19T01:00:28;18.40;99.90
12726;DHT22;6427;49.754;6.106;2022-08-19T01:02:55;18.40;99.90
12726;DHT22;6427;49.754;6.106;2022-08-19T01:05:24;18.30;99.90
12726;DHT22;6427;49.754;6.106;2022-08-19T01:07:50;18.30;99.90
12726;DHT22;6427;49.754;6.106;2022-08-19T01:10:19;18.50;99.90
12726;DHT22;6427;49.754;6.106;2022-08-19T01:12:46;18.40;99.90
12726;DHT22;6427;49.754;6.106;2022-08-19T01:15:14;18.30;99.90
12726;DHT22;6427;49.754;6.106;2022-08-19T01:17:41;18.20;99.90
12726;DHT22;6427;49.754;6.106;2022-08-19T01:20:16;18.10;99.90
12726;DHT22;6427;49.754;6.106;2022-08-19T01:22:46;18.00;99.90
12726;DHT22;6427;49.754;6.106;2022-08-19T01:25:13;17.90;99.90
12726;DHT22;6427;49.754;6.106;2022-08-19T01:27:41;17.90;99.90
12726;DHT22;6427;49.754;6.106;2022-08-19T01:30:09;17.80;99.90
12726;DHT22;6427;49.754;6.106;2022-08-19T01:32:36;17.80;99.90
12726;DHT22;6427;49.754;6.106;2022-08-19T01:35:04;17.80;99.90
12726;DHT22;6427;49.754;6.106;2022-08-19T01:37:41;17.70;99.90
12726;DHT22;6427;49.754;6.106;2022-08-19T01:39:58;17.70;99.90
12726;DHT22;6427;49.754;6.106;2022-08-19T01:42:26;17.70;99.90
12726;DHT22;6427;49.754;6.106;2022-08-19T01:44:53;17.70;99.90
12726;DHT22;6427;49.754;6.106;2022-08-19T01:47:22;17.90;99.90
12726;DHT22;6427;49.754;6.106;2022-08-19T01:49:49;17.80;99.90
12726;DHT22;6427;49.754;6.106;2022-08-19T01:52:17;17.80;99.90
12726;DHT22;6427;49.754;6.106;2022-08-19T01:54:45;17.90;99.90
12726;DHT22;6427;49.754;6.106;2022-08-19T01:57:13;17.90;99.90
12726;DHT22;6427;49.754;6.106;2022-08-19T01:59:41;17.90;99.90
12726;DHT22;6427;49.754;6.106;2022-08-19T02:02:09;17.70;99.90
12726;DHT22;6427;49.754;6.106;2022-08-19T02:04:36;17.70;99.90
12726;DHT22;6427;49.754;6.106;2022-08-19T02:07:07;17.70;99.90
12726;DHT22;6427;49.754;6.106;2022-08-19T02:09:34;17.60;99.90
12726;DHT22;6427;49.754;6.106;2022-08-19T02:12:03;17.70;99.90
12726;DHT22;6427;49.754;6.106;2022-08-19T02:14:30;17.60;99.90
12726;DHT22;6427;49.754;6.106;2022-08-19T02:16:58;17.60;99.90
12726;DHT22;6427;49.754;6.106;2022-08-19T02:19:26;17.50;99.90
12726;DHT22;6427;49.754;6.106;2022-08-19T02:21:54;17.40;99.90
12726;DHT22;6427;49.754;6.106;2022-08-19T02:24:21;17.40;99.90
12726;DHT22;6427;49.754;6.106;2022-08-19T02:26:49;17.30;99.90
12726;DHT22;6427;49.754;6.106;2022-08-19T02:29:17;17.30;99.90
12726;DHT22;6427;49.754;6.106;2022-08-19T02:31:44;17.20;99.90
12726;DHT22;6427;49.754;6.106;2022-08-19T02:34:12;17.50;99.90
12726;DHT22;6427;49.754;6.106;2022-08-19T02:36:39;17.40;99.90
12726;DHT22;6427;49.754;6.106;2022-08-19T02:39:07;17.40;99.90
12726;DHT22;6427;49.754;6.106;2022-08-19T02:41:34;17.30;99.90
12726;DHT22;6427;49.754;6.106;2022-08-19T02:44:02;17.30;99.90
12726;DHT22;6427;49.754;6.106;2022-08-19T02:46:30;17.30;99.90
12726;DHT22;6427;49.754;6.106;2022-08-19T02:48:59;17.20;99.90
12726;DHT22;6427;49.754;6.106;2022-08-19T02:51:29;17.20;99.90
12726;DHT22;6427;49.754;6.106;2022-08-19T02:53:56;17.50;99.90
12726;DHT22;6427;49.754;6.106;2022-08-19T02:56:23;17.70;99.90
12726;DHT22;6427;49.754;6.106;2022-08-19T02:58:51;17.60;99.90
12726;DHT22;6427;49.754;6.106;2022-08-19T03:01:26;17.70;99.90
12726;DHT22;6427;49.754;6.106;2022-08-19T03:03:49;17.70;99.90
12726;DHT22;6427;49.754;6.106;2022-08-19T03:06:17;17.60;99.90
12726;DHT22;6427;49.754;6.106;2022-08-19T03:08:46;17.70;99.90
12726;DHT22;6427;49.754;6.106;2022-08-19T03:11:17;17.70;99.90
12726;DHT22;6427;49.754;6.106;2022-08-19T03:13:43;17.60;99.90
12726;DHT22;6427;49.754;6.106;2022-08-19T03:16:11;17.50;99.90
12726;DHT22;6427;49.754;6.106;2022-08-19T03:18:38;17.40;99.90
12726;DHT22;6427;49.754;6.106;2022-08-19T03:21:06;17.40;99.90
12726;DHT22;6427;49.754;6.106;2022-08-19T03:23:34;17.30;99.90
12726;DHT22;6427;49.754;6.106;2022-08-19T03:26:05;17.20;99.90
12726;DHT22;6427;49.754;6.106;2022-08-19T03:28:32;17.10;99.90
12726;DHT22;6427;49.754;6.106;2022-08-19T03:31:05;17.00;99.90
12726;DHT22;6427;49.754;6.106;2022-08-19T03:33:31;17.00;99.90
12726;DHT22;6427;49.754;6.106;2022-08-19T03:36:08;17.00;99.90
12726;DHT22;6427;49.754;6.106;2022-08-19T03:38:39;17.10;99.90
12726;DHT22;6427;49.754;6.106;2022-08-19T03:41:07;17.10;99.90
12726;DHT22;6427;49.754;6.106;2022-08-19T03:43:33;17.10;99.90
12726;DHT22;6427;49.754;6.106;2022-08-19T03:46:06;17.00;99.90
12726;DHT22;6427;49.754;6.106;2022-08-19T03:48:28;16.90;99.90
12726;DHT22;6427;49.754;6.106;2022-08-19T03:50:56;16.90;99.90
12726;DHT22;6427;49.754;6.106;2022-08-19T03:53:24;16.90;99.90
12726;DHT22;6427;49.754;6.106;2022-08-19T03:55:51;16.80;99.90
12726;DHT22;6427;49.754;6.106;2022-08-19T03:58:19;16.80;99.90
12726;DHT22;6427;49.754;6.106;2022-08-19T04:00:46;17.00;99.90
12726;DHT22;6427;49.754;6.106;2022-08-19T04:03:15;16.90;99.90
12726;DHT22;6427;49.754;6.106;2022-08-19T04:05:43;16.80;99.90
12726;DHT22;6427;49.754;6.106;2022-08-19T04:08:11;16.80;99.90
12726;DHT22;6427;49.754;6.106;2022-08-19T04:10:39;16.70;99.90
12726;DHT22;6427;49.754;6.106;2022-08-19T04:13:07;16.70;99.90
12726;DHT22;6427;49.754;6.106;2022-08-19T04:15:38;16.70;99.90
12726;DHT22;6427;49.754;6.106;2022-08-19T04:18:02;16.60;99.90
12726;DHT22;6427;49.754;6.106;2022-08-19T04:20:30;16.60;99.90
12726;DHT22;6427;49.754;6.106;2022-08-19T04:22:57;16.60;99.90
12726;DHT22;6427;49.754;6.106;2022-08-19T04:25:25;16.60;99.90
12726;DHT22;6427;49.754;6.106;2022-08-19T04:27:52;16.50;99.90
12726;DHT22;6427;49.754;6.106;2022-08-19T04:30:20;16.50;99.90
12726;DHT22;6427;49.754;6.106;2022-08-19T04:32:47;16.50;99.90
12726;DHT22;6427;49.754;6.106;2022-08-19T04:35:15;16.50;99.90
12726;DHT22;6427;49.754;6.106;2022-08-19T04:37:43;16.40;99.90
12726;DHT22;6427;49.754;6.106;2022-08-19T04:40:10;16.40;99.90
12726;DHT22;6427;49.754;6.106;2022-08-19T04:42:56;16.40;99.90
12726;DHT22;6427;49.754;6.106;2022-08-19T04:45:24;16.30;99.90
12726;DHT22;6427;49.754;6.106;2022-08-19T04:47:54;16.30;99.90
12726;DHT22;6427;49.754;6.106;2022-08-19T04:50:20;16.30;99.90
12726;DHT22;6427;49.754;6.106;2022-08-19T04:52:49;16.30;99.90
12726;DHT22;6427;49.754;6.106;2022-08-19T04:55:16;16.30;99.90
12726;DHT22;6427;49.754;6.106;2022-08-19T04:57:44;16.30;99.90
12726;DHT22;6427;49.754;6.106;2022-08-19T05:00:12;16.30;99.90
12726;DHT22;6427;49.754;6.106;2022-08-19T05:02:39;16.50;99.90
12726;DHT22;6427;49.754;6.106;2022-08-19T05:05:07;16.60;99.90
12726;DHT22;6427;49.754;6.106;2022-08-19T05:07:35;16.60;99.90
12726;DHT22;6427;49.754;6.106;2022-08-19T05:10:04;16.70;99.90
12726;DHT22;6427;49.754;6.106;2022-08-19T05:12:30;16.70;99.90
12726;DHT22;6427;49.754;6.106;2022-08-19T05:14:58;16.70;99.90
12726;DHT22;6427;49.754;6.106;2022-08-19T05:17:26;16.70;99.90
12726;DHT22;6427;49.754;6.106;2022-08-19T05:19:54;16.60;99.90
12726;DHT22;6427;49.754;6.106;2022-08-19T05:22:40;16.60;99.90
12726;DHT22;6427;49.754;6.106;2022-08-19T05:25:09;16.60;99.90
12726;DHT22;6427;49.754;6.106;2022-08-19T05:27:35;16.60;99.90
12726;DHT22;6427;49.754;6.106;2022-08-19T05:30:02;16.60;99.90
12726;DHT22;6427;49.754;6.106;2022-08-19T05:32:30;16.60;99.90
12726;DHT22;6427;49.754;6.106;2022-08-19T05:34:58;16.60;99.90
12726;DHT22;6427;49.754;6.106;2022-08-19T05:37:25;16.60;99.90
12726;DHT22;6427;49.754;6.106;2022-08-19T05:39:53;16.60;99.90
12726;DHT22;6427;49.754;6.106;2022-08-19T05:42:21;16.80;99.90
12726;DHT22;6427;49.754;6.106;2022-08-19T05:44:48;16.80;99.90
12726;DHT22;6427;49.754;6.106;2022-08-19T05:47:16;16.80;99.90
12726;DHT22;6427;49.754;6.106;2022-08-19T05:49:44;16.70;99.90
12726;DHT22;6427;49.754;6.106;2022-08-19T05:52:13;16.70;99.90
12726;DHT22;6427;49.754;6.106;2022-08-19T05:54:40;16.70;99.90
12726;DHT22;6427;49.754;6.106;2022-08-19T05:57:08;16.70;99.90
12726;DHT22;6427;49.754;6.106;2022-08-19T05:59:35;17.30;99.90
12726;DHT22;6427;49.754;6.106;2022-08-19T06:02:05;17.30;99.90
12726;DHT22;6427;49.754;6.106;2022-08-19T06:04:32;17.30;99.90
12726;DHT22;6427;49.754;6.106;2022-08-19T06:06:59;17.30;99.90
12726;DHT22;6427;49.754;6.106;2022-08-19T06:09:27;17.60;99.90
12726;DHT22;6427;49.754;6.106;2022-08-19T06:11:56;17.60;99.90
12726;DHT22;6427;49.754;6.106;2022-08-19T06:14:24;17.70;99.90
12726;DHT22;6427;49.754;6.106;2022-08-19T06:16:51;17.60;99.90
12726;DHT22;6427;49.754;6.106;2022-08-19T06:19:20;17.70;99.90
12726;DHT22;6427;49.754;6.106;2022-08-19T06:21:47;17.70;99.90
12726;DHT22;6427;49.754;6.106;2022-08-19T06:24:17;17.70;99.90
12726;DHT22;6427;49.754;6.106;2022-08-19T06:26:43;17.80;99.90
12726;DHT22;6427;49.754;6.106;2022-08-19T06:29:11;17.80;99.90
12726;DHT22;6427;49.754;6.106;2022-08-19T06:31:40;17.90;99.90
12726;DHT22;6427;49.754;6.106;2022-08-19T06:34:06;18.00;99.90
12726;DHT22;6427;49.754;6.106;2022-08-19T06:36:35;18.00;99.90
12726;DHT22;6427;49.754;6.106;2022-08-19T06:39:06;18.20;99.90
12726;DHT22;6427;49.754;6.106;2022-08-19T06:41:29;18.20;99.90
12726;DHT22;6427;49.754;6.106;2022-08-19T06:43:57;18.30;99.90
12726;DHT22;6427;49.754;6.106;2022-08-19T06:46:25;18.50;99.90
12726;DHT22;6427;49.754;6.106;2022-08-19T06:48:54;18.70;99.90
12726;DHT22;6427;49.754;6.106;2022-08-19T06:51:22;18.70;99.90
12726;DHT22;6427;49.754;6.106;2022-08-19T06:53:51;18.90;99.90
12726;DHT22;6427;49.754;6.106;2022-08-19T06:56:19;18.90;99.90
12726;DHT22;6427;49.754;6.106;2022-08-19T06:58:45;19.00;99.90
12726;DHT22;6427;49.754;6.106;2022-08-19T07:01:13;19.30;99.90
12726;DHT22;6427;49.754;6.106;2022-08-19T07:03:41;19.20;99.90
12726;DHT22;6427;49.754;6.106;2022-08-19T07:06:09;19.40;99.90
12726;DHT22;6427;49.754;6.106;2022-08-19T07:08:36;19.60;99.90
12726;DHT22;6427;49.754;6.106;2022-08-19T07:11:07;19.70;99.90
12726;DHT22;6427;49.754;6.106;2022-08-19T07:13:34;19.80;99.90
12726;DHT22;6427;49.754;6.106;2022-08-19T07:16:12;20.00;99.90
12726;DHT22;6427;49.754;6.106;2022-08-19T07:18:36;20.00;99.90
12726;DHT22;6427;49.754;6.106;2022-08-19T07:21:13;20.20;99.90
12726;DHT22;6427;49.754;6.106;2022-08-19T07:23:40;20.30;99.90
12726;DHT22;6427;49.754;6.106;2022-08-19T07:26:08;20.40;99.90
12726;DHT22;6427;49.754;6.106;2022-08-19T07:28:35;20.60;99.90
12726;DHT22;6427;49.754;6.106;2022-08-19T07:31:03;20.60;99.90
12726;DHT22;6427;49.754;6.106;2022-08-19T07:33:32;21.20;99.90
12726;DHT22;6427;49.754;6.106;2022-08-19T07:35:59;21.10;99.90
12726;DHT22;6427;49.754;6.106;2022-08-19T07:38:27;21.20;99.90
12726;DHT22;6427;49.754;6.106;2022-08-19T07:40:55;21.20;99.90
12726;DHT22;6427;49.754;6.106;2022-08-19T07:43:23;21.30;99.90
12726;DHT22;6427;49.754;6.106;2022-08-19T07:45:54;21.30;99.90
12726;DHT22;6427;49.754;6.106;2022-08-19T07:48:21;21.40;99.90
12726;DHT22;6427;49.754;6.106;2022-08-19T07:50:48;21.40;99.90
12726;DHT22;6427;49.754;6.106;2022-08-19T07:53:16;21.50;99.90
12726;DHT22;6427;49.754;6.106;2022-08-19T07:55:44;21.70;99.90
12726;DHT22;6427;49.754;6.106;2022-08-19T07:58:13;22.00;99.90
12726;DHT22;6427;49.754;6.106;2022-08-19T08:00:41;22.20;99.80
12726;DHT22;6427;49.754;6.106;2022-08-19T08:03:08;22.20;99.80
12726;DHT22;6427;49.754;6.106;2022-08-19T08:05:35;22.30;99.40
12726;DHT22;6427;49.754;6.106;2022-08-19T08:08:22;22.40;99.10
12726;DHT22;6427;49.754;6.106;2022-08-19T08:11:09;22.70;98.50
12726;DHT22;6427;49.754;6.106;2022-08-19T08:13:37;22.70;98.40
12726;DHT22;6427;49.754;6.106;2022-08-19T08:16:04;22.80;98.00
12726;DHT22;6427;49.754;6.106;2022-08-19T08:18:32;22.90;98.00
12726;DHT22;6427;49.754;6.106;2022-08-19T08:20:59;23.20;96.60
12726;DHT22;6427;49.754;6.106;2022-08-19T08:23:28;23.70;95.10
12726;DHT22;6427;49.754;6.106;2022-08-19T08:25:56;23.70;95.10
12726;DHT22;6427;49.754;6.106;2022-08-19T08:28:24;23.80;94.50
12726;DHT22;6427;49.754;6.106;2022-08-19T08:30:51;23.80;94.50
12726;DHT22;6427;49.754;6.106;2022-08-19T08:33:20;23.90;94.30
12726;DHT22;6427;49.754;6.106;2022-08-19T08:35:46;23.90;93.80
12726;DHT22;6427;49.754;6.106;2022-08-19T08:38:14;23.90;93.50
12726;DHT22;6427;49.754;6.106;2022-08-19T08:40:43;24.00;93.60
12726;DHT22;6427;49.754;6.106;2022-08-19T08:48:37;24.30;92.10
12726;DHT22;6427;49.754;6.106;2022-08-19T08:51:11;24.30;91.80
12726;DHT22;6427;49.754;6.106;2022-08-19T08:53:36;24.20;91.60
12726;DHT22;6427;49.754;6.106;2022-08-19T08:56:04;24.50;91.30
12726;DHT22;6427;49.754;6.106;2022-08-19T08:58:49;24.80;90.60
12726;DHT22;6427;49.754;6.106;2022-08-19T09:01:15;24.80;90.50
12726;DHT22;6427;49.754;6.106;2022-08-19T09:03:43;24.90;90.10
12726;DHT22;6427;49.754;6.106;2022-08-19T09:06:14;24.80;90.10
12726;DHT22;6427;49.754;6.106;2022-08-19T09:08:47;24.80;90.30
12726;DHT22;6427;49.754;6.106;2022-08-19T09:11:30;24.80;90.00
12726;DHT22;6427;49.754;6.106;2022-08-19T09:14:15;24.90;88.60
12726;DHT22;6427;49.754;6.106;2022-08-19T09:16:38;24.90;88.60
12726;DHT22;6427;49.754;6.106;2022-08-19T09:19:08;24.90;88.30
12726;DHT22;6427;49.754;6.106;2022-08-19T09:21:35;24.90;88.30
12726;DHT22;6427;49.754;6.106;2022-08-19T09:24:04;25.10;85.50
12726;DHT22;6427;49.754;6.106;2022-08-19T09:26:32;25.20;85.20
12726;DHT22;6427;49.754;6.106;2022-08-19T09:28:59;25.20;85.10
12726;DHT22;6427;49.754;6.106;2022-08-19T09:31:28;25.20;84.60
12726;DHT22;6427;49.754;6.106;2022-08-19T09:33:55;25.30;84.30
12726;DHT22;6427;49.754;6.106;2022-08-19T09:36:22;25.30;84.10
12726;DHT22;6427;49.754;6.106;2022-08-19T09:38:50;25.40;83.50
12726;DHT22;6427;49.754;6.106;2022-08-19T09:41:19;25.70;82.40
12726;DHT22;6427;49.754;6.106;2022-08-19T09:43:47;25.70;82.40
12726;DHT22;6427;49.754;6.106;2022-08-19T09:46:13;25.80;81.70
12726;DHT22;6427;49.754;6.106;2022-08-19T09:48:42;25.90;80.80
12726;DHT22;6427;49.754;6.106;2022-08-19T09:51:10;25.90;79.90
12726;DHT22;6427;49.754;6.106;2022-08-19T09:53:37;25.90;79.60
12726;DHT22;6427;49.754;6.106;2022-08-19T09:56:05;25.90;79.40
12726;DHT22;6427;49.754;6.106;2022-08-19T09:58:33;25.90;78.90
12726;DHT22;6427;49.754;6.106;2022-08-19T10:01:01;25.90;79.00
12726;DHT22;6427;49.754;6.106;2022-08-19T10:03:29;25.90;79.80
12726;DHT22;6427;49.754;6.106;2022-08-19T10:05:57;25.90;79.10
12726;DHT22;6427;49.754;6.106;2022-08-19T10:08:25;25.90;78.80
12726;DHT22;6427;49.754;6.106;2022-08-19T10:10:51;25.90;78.40
12726;DHT22;6427;49.754;6.106;2022-08-19T10:13:19;25.90;78.40
12726;DHT22;6427;49.754;6.106;2022-08-19T10:15:46;26.10;78.30
12726;DHT22;6427;49.754;6.106;2022-08-19T10:18:14;26.10;77.80
12726;DHT22;6427;49.754;6.106;2022-08-19T10:20:42;26.10;77.50
12726;DHT22;6427;49.754;6.106;2022-08-19T10:23:09;26.10;77.40
12726;DHT22;6427;49.754;6.106;2022-08-19T10:25:37;26.10;76.70
12726;DHT22;6427;49.754;6.106;2022-08-19T10:28:05;26.10;76.20
12726;DHT22;6427;49.754;6.106;2022-08-19T10:30:32;26.30;74.50
12726;DHT22;6427;49.754;6.106;2022-08-19T10:33:00;26.30;74.40
12726;DHT22;6427;49.754;6.106;2022-08-19T10:35:27;26.30;74.10
12726;DHT22;6427;49.754;6.106;2022-08-19T10:37:55;26.30;74.20
12726;DHT22;6427;49.754;6.106;2022-08-19T10:40:23;26.40;73.80
12726;DHT22;6427;49.754;6.106;2022-08-19T10:42:50;26.40;73.80
12726;DHT22;6427;49.754;6.106;2022-08-19T10:45:18;26.40;72.70
12726;DHT22;6427;49.754;6.106;2022-08-19T10:47:45;26.40;72.40
12726;DHT22;6427;49.754;6.106;2022-08-19T10:50:13;26.40;72.40
12726;DHT22;6427;49.754;6.106;2022-08-19T10:53:03;26.30;72.80
12726;DHT22;6427;49.754;6.106;2022-08-19T10:55:27;26.40;72.80
12726;DHT22;6427;49.754;6.106;2022-08-19T10:58:13;26.30;72.80
12726;DHT22;6427;49.754;6.106;2022-08-19T11:00:40;26.20;72.70
12726;DHT22;6427;49.754;6.106;2022-08-19T11:03:08;26.20;72.70
12726;DHT22;6427;49.754;6.106;2022-08-19T11:05:35;26.10;72.20
12726;DHT22;6427;49.754;6.106;2022-08-19T11:08:03;26.10;71.80
12726;DHT22;6427;49.754;6.106;2022-08-19T11:10:31;26.40;70.10
12726;DHT22;6427;49.754;6.106;2022-08-19T11:12:59;26.40;70.10
12726;DHT22;6427;49.754;6.106;2022-08-19T11:15:27;26.50;70.40
12726;DHT22;6427;49.754;6.106;2022-08-19T11:17:55;26.40;69.60
12726;DHT22;6427;49.754;6.106;2022-08-19T11:20:22;26.50;70.20
12726;DHT22;6427;49.754;6.106;2022-08-19T11:22:51;26.50;69.30
12726;DHT22;6427;49.754;6.106;2022-08-19T11:25:18;26.50;69.30
12726;DHT22;6427;49.754;6.106;2022-08-19T11:27:46;26.50;67.50
12726;DHT22;6427;49.754;6.106;2022-08-19T11:30:13;26.50;66.60
12726;DHT22;6427;49.754;6.106;2022-08-19T11:32:41;26.60;64.70
12726;DHT22;6427;49.754;6.106;2022-08-19T11:35:09;26.70;63.80
12726;DHT22;6427;49.754;6.106;2022-08-19T11:37:37;27.20;60.40
12726;DHT22;6427;49.754;6.106;2022-08-19T11:40:05;27.20;60.30
12726;DHT22;6427;49.754;6.106;2022-08-19T11:42:32;27.20;60.90
12726;DHT22;6427;49.754;6.106;2022-08-19T11:45:19;27.10;60.10
12726;DHT22;6427;49.754;6.106;2022-08-19T11:47:47;27.10;60.20
12726;DHT22;6427;49.754;6.106;2022-08-19T11:50:15;27.20;59.50
12726;DHT22;6427;49.754;6.106;2022-08-19T11:52:42;27.20;59.60
12726;DHT22;6427;49.754;6.106;2022-08-19T11:55:10;27.20;59.10
12726;DHT22;6427;49.754;6.106;2022-08-19T11:57:38;27.10;57.90
12726;DHT22;6427;49.754;6.106;2022-08-19T12:00:06;27.10;57.80
12726;DHT22;6427;49.754;6.106;2022-08-19T12:02:33;27.00;57.80
12726;DHT22;6427;49.754;6.106;2022-08-19T12:05:01;27.00;57.00
12726;DHT22;6427;49.754;6.106;2022-08-19T12:07:29;27.00;56.10
12726;DHT22;6427;49.754;6.106;2022-08-19T12:09:56;27.00;56.00
12726;DHT22;6427;49.754;6.106;2022-08-19T12:12:24;27.00;55.90
12726;DHT22;6427;49.754;6.106;2022-08-19T12:14:52;27.00;55.90
12726;DHT22;6427;49.754;6.106;2022-08-19T12:17:20;27.00;55.90
12726;DHT22;6427;49.754;6.106;2022-08-19T12:19:47;27.00;56.10
12726;DHT22;6427;49.754;6.106;2022-08-19T12:22:15;27.10;56.80
12726;DHT22;6427;49.754;6.106;2022-08-19T12:24:42;27.10;57.50
12726;DHT22;6427;49.754;6.106;2022-08-19T12:27:10;27.30;57.80
12726;DHT22;6427;49.754;6.106;2022-08-19T12:29:38;27.30;57.70
12726;DHT22;6427;49.754;6.106;2022-08-19T12:32:05;27.30;57.80
12726;DHT22;6427;49.754;6.106;2022-08-19T12:34:33;27.20;57.90
12726;DHT22;6427;49.754;6.106;2022-08-19T12:37:02;27.40;57.70
12726;DHT22;6427;49.754;6.106;2022-08-19T12:39:29;27.40;57.70
12726;DHT22;6427;49.754;6.106;2022-08-19T12:41:57;27.40;58.60
12726;DHT22;6427;49.754;6.106;2022-08-19T12:44:25;27.30;58.20
12726;DHT22;6427;49.754;6.106;2022-08-19T12:46:53;27.30;58.50
12726;DHT22;6427;49.754;6.106;2022-08-19T12:49:21;27.30;58.50
12726;DHT22;6427;49.754;6.106;2022-08-19T12:51:48;27.30;58.60
12726;DHT22;6427;49.754;6.106;2022-08-19T12:54:16;27.30;58.90
12726;DHT22;6427;49.754;6.106;2022-08-19T12:56:43;27.40;58.90
12726;DHT22;6427;49.754;6.106;2022-08-19T12:59:11;27.40;58.90
12726;DHT22;6427;49.754;6.106;2022-08-19T13:01:39;27.40;59.00
12726;DHT22;6427;49.754;6.106;2022-08-19T13:04:06;27.40;59.40
12726;DHT22;6427;49.754;6.106;2022-08-19T13:06:34;27.50;59.30
12726;DHT22;6427;49.754;6.106;2022-08-19T13:09:02;27.50;59.00
12726;DHT22;6427;49.754;6.106;2022-08-19T13:11:29;27.50;58.80
12726;DHT22;6427;49.754;6.106;2022-08-19T13:13:56;27.50;58.80
12726;DHT22;6427;49.754;6.106;2022-08-19T13:16:24;27.50;58.70
12726;DHT22;6427;49.754;6.106;2022-08-19T13:18:52;27.70;58.30
12726;DHT22;6427;49.754;6.106;2022-08-19T13:21:22;27.50;58.30
12726;DHT22;6427;49.754;6.106;2022-08-19T13:23:48;27.50;58.20
12726;DHT22;6427;49.754;6.106;2022-08-19T13:26:15;27.40;58.40
12726;DHT22;6427;49.754;6.106;2022-08-19T13:28:43;27.40;58.70
12726;DHT22;6427;49.754;6.106;2022-08-19T13:31:30;27.30;58.90
12726;DHT22;6427;49.754;6.106;2022-08-19T13:34:14;27.30;59.20
12726;DHT22;6427;49.754;6.106;2022-08-19T13:36:42;27.40;59.50
12726;DHT22;6427;49.754;6.106;2022-08-19T13:39:09;27.60;59.30
12726;DHT22;6427;49.754;6.106;2022-08-19T13:41:37;27.60;59.20
12726;DHT22;6427;49.754;6.106;2022-08-19T13:44:05;28.00;58.00
12726;DHT22;6427;49.754;6.106;2022-08-19T13:46:33;28.00;58.60
12726;DHT22;6427;49.754;6.106;2022-08-19T13:49:00;28.00;57.60
12726;DHT22;6427;49.754;6.106;2022-08-19T13:51:28;28.00;57.60
12726;DHT22;6427;49.754;6.106;2022-08-19T13:53:55;28.10;57.20
12726;DHT22;6427;49.754;6.106;2022-08-19T13:56:23;28.10;57.00
12726;DHT22;6427;49.754;6.106;2022-08-19T13:58:50;28.00;57.30
12726;DHT22;6427;49.754;6.106;2022-08-19T14:01:21;27.90;57.50
12726;DHT22;6427;49.754;6.106;2022-08-19T14:03:49;27.70;58.40
12726;DHT22;6427;49.754;6.106;2022-08-19T14:06:17;27.70;58.30
12726;DHT22;6427;49.754;6.106;2022-08-19T14:08:45;27.60;59.30
12726;DHT22;6427;49.754;6.106;2022-08-19T14:11:12;27.80;58.60
12726;DHT22;6427;49.754;6.106;2022-08-19T14:13:40;27.90;58.00
12726;DHT22;6427;49.754;6.106;2022-08-19T14:16:08;27.90;58.00
12726;DHT22;6427;49.754;6.106;2022-08-19T14:18:35;27.80;58.40
12726;DHT22;6427;49.754;6.106;2022-08-19T14:21:04;27.60;59.10
12726;DHT22;6427;49.754;6.106;2022-08-19T14:23:32;27.60;59.00
12726;DHT22;6427;49.754;6.106;2022-08-19T14:26:09;27.40;59.70
12726;DHT22;6427;49.754;6.106;2022-08-19T14:28:33;27.40;59.70
12726;DHT22;6427;49.754;6.106;2022-08-19T14:31:01;27.30;60.00
12726;DHT22;6427;49.754;6.106;2022-08-19T14:33:28;27.30;60.40
12726;DHT22;6427;49.754;6.106;2022-08-19T14:35:56;27.30;61.00
12726;DHT22;6427;49.754;6.106;2022-08-19T14:38:24;27.40;61.00
12726;DHT22;6427;49.754;6.106;2022-08-19T14:40:51;27.40;60.40
12726;DHT22;6427;49.754;6.106;2022-08-19T14:43:19;27.40;60.30
12726;DHT22;6427;49.754;6.106;2022-08-19T14:45:46;27.40;60.50
12726;DHT22;6427;49.754;6.106;2022-08-19T14:48:14;27.40;60.60
12726;DHT22;6427;49.754;6.106;2022-08-19T14:50:42;27.70;59.90
12726;DHT22;6427;49.754;6.106;2022-08-19T14:53:10;27.70;59.80
12726;DHT22;6427;49.754;6.106;2022-08-19T14:55:40;27.60;60.00
12726;DHT22;6427;49.754;6.106;2022-08-19T14:58:05;27.50;60.70
12726;DHT22;6427;49.754;6.106;2022-08-19T15:00:33;27.40;61.40
12726;DHT22;6427;49.754;6.106;2022-08-19T15:03:00;27.30;61.50
12726;DHT22;6427;49.754;6.106;2022-08-19T15:05:28;27.50;61.80
12726;DHT22;6427;49.754;6.106;2022-08-19T15:07:56;27.40;61.70
12726;DHT22;6427;49.754;6.106;2022-08-19T15:10:23;27.40;62.80
12726;DHT22;6427;49.754;6.106;2022-08-19T15:12:51;27.20;63.50
12726;DHT22;6427;49.754;6.106;2022-08-19T15:15:18;27.10;64.10
12726;DHT22;6427;49.754;6.106;2022-08-19T15:17:46;27.00;64.00
12726;DHT22;6427;49.754;6.106;2022-08-19T15:20:15;27.00;63.90
12726;DHT22;6427;49.754;6.106;2022-08-19T15:22:41;26.90;64.10
12726;DHT22;6427;49.754;6.106;2022-08-19T15:25:09;26.90;64.20
12726;DHT22;6427;49.754;6.106;2022-08-19T15:27:37;26.90;64.90
12726;DHT22;6427;49.754;6.106;2022-08-19T15:30:05;26.90;64.80
12726;DHT22;6427;49.754;6.106;2022-08-19T15:32:32;27.00;64.80
12726;DHT22;6427;49.754;6.106;2022-08-19T15:35:00;27.20;64.40
12726;DHT22;6427;49.754;6.106;2022-08-19T15:37:29;27.40;63.50
12726;DHT22;6427;49.754;6.106;2022-08-19T15:39:56;27.40;63.20
12726;DHT22;6427;49.754;6.106;2022-08-19T15:42:25;27.30;63.60
12726;DHT22;6427;49.754;6.106;2022-08-19T15:44:52;27.30;63.10
12726;DHT22;6427;49.754;6.106;2022-08-19T15:47:20;27.30;63.30
12726;DHT22;6427;49.754;6.106;2022-08-19T15:49:47;27.20;63.50
12726;DHT22;6427;49.754;6.106;2022-08-19T15:52:15;27.10;64.20
12726;DHT22;6427;49.754;6.106;2022-08-19T15:54:42;27.10;64.30
12726;DHT22;6427;49.754;6.106;2022-08-19T15:57:10;27.40;63.20